Time;durP1;ratioP1;P1;durP2;ratioP2;P2;SDS_P1;SDS_P2;PMS_P1;PMS_P2;Temp;Humidity;BMP_temperature;BMP_pressure;BME280_temperature;BME280_humidity;BME280_pressure;Samples;Min_cycle;Max_cycle;Signal;HPM_P1;HPM_P2
2022/10/04 00:01:56;;;;;;;7.57;6.88;;;21.70;56.60;;;;;;5039317;28;20036;-65
2022/10/04 00:04:39;;;;;;;8.07;7.38;;;21.70;56.60;;;;;;5040069;28;20516;-65
2022/10/04 00:07:11;;;;;;;8.23;7.43;;;21.70;56.60;;;;;;5037818;28;20469;-65
2022/10/04 00:10:12;;;;;;;8.05;7.25;;;21.70;56.60;;;;;;5037822;28;20033;-65
2022/10/04 00:12:44;;;;;;;7.75;7.05;;;21.70;56.60;;;;;;5036968;28;20037;-65
2022/10/04 00:15:23;;;;;;;7.60;6.88;;;21.70;56.60;;;;;;5036555;28;20116;-65
2022/10/04 00:18:00;;;;;;;;;;;21.60;56.60;;;;;;5034689;28;20477;-65
2022/10/04 00:20:52;;;;;;;7.43;6.60;;;21.70;56.60;;;;;;5036039;28;19905;-65
2022/10/04 00:23:23;;;;;;;7.07;6.47;;;21.70;56.60;;;;;;5049113;28;20029;-66
2022/10/04 00:26:04;;;;;;;6.97;6.28;;;21.60;56.60;;;;;;5039070;28;20028;-65
2022/10/04 00:28:35;;;;;;;7.30;6.60;;;21.70;56.60;;;;;;5039040;28;20151;-65
2022/10/04 00:31:17;;;;;;;6.72;6.13;;;21.60;56.60;;;;;;5038083;28;20082;-65
2022/10/04 00:33:47;;;;;;;6.85;6.25;;;21.60;56.60;;;;;;5041671;28;20044;-65
2022/10/04 00:36:27;;;;;;;6.90;6.30;;;21.70;56.70;;;;;;5040053;28;20480;-66
2022/10/04 00:39:08;;;;;;;6.80;6.15;;;21.60;56.60;;;;;;5038731;28;20033;-65
2022/10/04 00:41:56;;;;;;;7.03;6.38;;;21.60;56.60;;;;;;5035964;28;20420;-65
2022/10/04 00:44:44;;;;;;;6.78;6.18;;;21.60;56.60;;;;;;5035122;28;20021;-65
2022/10/04 00:47:40;;;;;;;6.78;6.18;;;21.60;56.70;;;;;;5038515;28;20424;-65
2022/10/04 00:50:17;;;;;;;6.65;6.05;;;21.60;56.70;;;;;;5040834;28;20096;-66
2022/10/04 00:52:49;;;;;;;6.65;6.05;;;21.60;56.70;;;;;;5037291;28;20065;-66
2022/10/04 00:55:38;;;;;;;6.63;6.03;;;21.50;56.60;;;;;;5037298;28;20104;-65
2022/10/04 00:58:11;;;;;;;6.35;5.75;;;21.50;56.60;;;;;;5032477;28;20033;-66
2022/10/04 01:00:38;;;;;;;5.82;5.32;;;21.50;56.60;;;;;;5034495;28;20025;-65
2022/10/04 01:03:12;;;;;;;6.30;5.70;;;21.50;56.60;;;;;;5038697;28;20021;-65
2022/10/04 01:05:48;;;;;;;6.60;6.00;;;21.50;56.60;;;;;;5037025;28;20029;-66
2022/10/04 01:08:23;;;;;;;6.32;5.72;;;21.50;56.60;;;;;;5031700;28;20347;-65
2022/10/04 01:10:54;;;;;;;6.07;5.50;;;21.50;56.70;;;;;;5032209;28;20026;-65
2022/10/04 01:13:26;;;;;;;6.32;5.72;;;21.50;56.70;;;;;;5038552;28;20052;-67
2022/10/04 01:16:08;;;;;;;6.65;6.05;;;21.50;56.60;;;;;;5037370;28;20096;-66
2022/10/04 01:18:35;;;;;;;6.20;5.60;;;21.50;56.70;;;;;;5034593;28;20025;-66
2022/10/04 01:21:19;;;;;;;6.07;5.47;;;21.50;56.70;;;;;;5038392;28;20532;-66
2022/10/04 01:23:49;;;;;;;6.00;5.40;;;21.50;56.70;;;;;;5033308;28;20504;-67
2022/10/04 01:26:31;;;;;;;6.05;5.45;;;21.50;56.70;;;;;;5031142;28;20382;-66
2022/10/04 01:29:01;;;;;;;6.13;5.53;;;21.40;56.60;;;;;;5038534;28;20040;-66
2022/10/04 01:31:27;;;;;;;5.70;5.20;;;21.40;56.60;;;;;;5038039;28;20032;-64
2022/10/04 01:33:54;;;;;;;5.93;5.18;;;21.40;56.70;;;;;;5039120;28;20142;-65
2022/10/04 01:36:20;;;;;;;5.90;5.40;;;21.40;56.70;;;;;;5040272;28;20086;-65
2022/10/04 01:38:46;;;;;;;5.40;4.90;;;21.40;56.70;;;;;;5037286;28;20060;-66
2022/10/04 01:41:16;;;;;;;5.80;5.22;;;21.40;56.70;;;;;;5038151;28;20032;-66
2022/10/04 01:43:47;;;;;;;5.50;5.00;;;21.40;56.70;;;;;;5037585;28;20044;-66
2022/10/04 01:46:35;;;;;;;5.57;5.07;;;21.40;56.70;;;;;;5034813;28;20029;-65
2022/10/04 01:49:08;;;;;;;5.40;4.90;;;21.40;56.70;;;;;;5037018;28;20495;-65
2022/10/04 01:51:40;;;;;;;5.40;4.90;;;21.40;56.70;;;;;;5039485;28;20078;-65
2022/10/04 01:54:12;;;;;;;5.35;4.85;;;21.40;56.70;;;;;;5040176;28;20212;-65
2022/10/04 01:57:00;;;;;;;5.22;4.72;;;21.40;56.70;;;;;;5041959;28;20020;-64
2022/10/04 01:59:43;;;;;;;5.15;4.65;;;21.40;56.80;;;;;;5040265;28;20515;-65
2022/10/04 02:02:25;;;;;;;6.43;4.85;;;21.40;56.70;;;;;;5039067;28;20047;-65
2022/10/04 02:04:54;;;;;;;5.20;4.70;;;21.30;56.70;;;;;;5053700;28;20026;-65
2022/10/04 02:07:20;;;;;;;;;;;21.30;56.70;;;;;;5042403;28;20083;-65
2022/10/04 02:09:50;;;;;;;5.32;4.40;;;21.30;56.70;;;;;;5036600;28;19905;-65
2022/10/04 02:12:17;;;;;;;5.35;4.85;;;21.30;56.70;;;;;;5047670;28;20111;-65
2022/10/04 02:14:56;;;;;;;4.70;4.30;;;21.30;56.70;;;;;;5034046;28;20112;-65
2022/10/04 02:17:27;;;;;;;4.90;4.40;;;21.30;56.70;;;;;;5037308;28;20052;-65
2022/10/04 02:19:53;;;;;;;5.50;5.00;;;21.30;56.70;;;;;;5056389;28;20423;-65
2022/10/04 02:22:21;;;;;;;4.93;4.43;;;21.30;56.80;;;;;;5043386;28;20487;-65
2022/10/04 02:24:49;;;;;;;5.13;4.55;;;21.30;56.80;;;;;;5041424;28;20390;-65
2022/10/04 02:27:15;;;;;;;4.50;4.10;;;21.30;56.70;;;;;;5039164;28;20098;-65
2022/10/04 02:29:41;;;;;;;4.63;4.22;;;21.30;56.80;;;;;;5042337;28;20036;-65
2022/10/04 02:34:53;;;;;;;4.63;4.22;;;21.20;56.70;;;;;;5038179;28;20440;-65
2022/10/04 02:37:22;;;;;;;4.68;4.25;;;21.20;56.70;;;;;;5040170;28;20028;-65
2022/10/04 02:39:54;;;;;;;4.60;4.13;;;21.20;56.70;;;;;;5036998;28;20036;-65
2022/10/04 02:43:16;;;;;;;4.45;4.05;;;21.20;56.70;;;;;;5039587;28;20477;-65
2022/10/04 02:45:48;;;;;;;4.85;4.10;;;21.30;56.80;;;;;;5000646;28;20458;-65
2022/10/04 02:48:36;;;;;;;4.38;3.97;;;21.20;56.70;;;;;;5036777;28;20080;-65
2022/10/04 02:51:24;;;;;;;4.13;3.72;;;21.30;56.80;;;;;;5038191;28;20489;-65
2022/10/04 02:54:01;;;;;;;4.32;3.92;;;21.20;56.70;;;;;;5036690;28;20029;-65
2022/10/04 02:56:27;;;;;;;4.30;3.90;;;21.20;56.70;;;;;;5031617;28;20473;-65
2022/10/04 02:58:53;;;;;;;4.40;4.00;;;21.20;56.70;;;;;;5040104;28;20445;-65
2022/10/04 03:01:48;;;;;;;4.13;3.65;;;21.20;56.70;;;;;;5037326;28;20053;-65
2022/10/04 03:04:14;;;;;;;4.05;3.65;;;21.20;56.70;;;;;;5038554;28;20031;-65
2022/10/04 03:06:42;;;;;;;4.07;3.67;;;21.20;56.80;;;;;;5039962;28;20389;-66
2022/10/04 03:09:08;;;;;;;4.22;3.83;;;21.20;56.70;;;;;;5044089;28;20094;-65
2022/10/04 03:11:36;;;;;;;4.60;4.10;;;21.20;56.80;;;;;;5039323;28;20029;-65
2022/10/04 03:14:06;;;;;;;4.10;3.70;;;21.20;56.80;;;;;;5041245;28;20029;-65
2022/10/04 03:16:38;;;;;;;4.00;3.60;;;21.20;56.80;;;;;;5038290;28;20488;-65
2022/10/04 03:19:06;;;;;;;3.92;3.53;;;21.20;56.80;;;;;;5037647;28;20111;-65
2022/10/04 03:21:32;;;;;;;4.35;3.95;;;21.10;56.70;;;;;;5038255;28;20128;-65
2022/10/04 03:23:59;;;;;;;4.32;3.92;;;21.10;56.70;;;;;;5038803;28;20022;-65
2022/10/04 03:26:41;;;;;;;3.83;3.42;;;21.10;56.70;;;;;;5039208;28;20033;-65
2022/10/04 03:29:10;;;;;;;4.07;3.67;;;21.20;56.80;;;;;;5036767;28;20021;-64
2022/10/04 03:31:42;;;;;;;3.67;3.35;;;21.10;56.70;;;;;;5032318;28;20091;-65
2022/10/04 03:34:21;;;;;;;4.20;3.80;;;21.10;56.70;;;;;;5028850;28;20026;-64
2022/10/04 03:36:49;;;;;;;4.05;3.63;;;21.10;56.70;;;;;;5040352;28;20064;-64
2022/10/04 03:39:26;;;;;;;3.75;3.35;;;21.10;56.70;;;;;;5037331;28;20029;-64
2022/10/04 03:41:52;;;;;;;4.18;3.78;;;21.20;56.80;;;;;;5031368;28;20040;-65
2022/10/04 03:44:19;;;;;;;3.92;3.53;;;21.10;56.70;;;;;;5035047;28;20051;-65
2022/10/04 03:46:46;;;;;;;4.13;3.72;;;21.10;56.70;;;;;;5035287;28;20126;-65
2022/10/04 03:49:17;;;;;;;4.35;3.65;;;21.10;56.70;;;;;;5041101;28;20030;-65
2022/10/04 03:51:47;;;;;;;4.00;3.60;;;21.10;56.70;;;;;;5042656;28;20067;-65
2022/10/04 03:54:18;;;;;;;4.07;3.67;;;21.10;56.70;;;;;;5039499;28;20052;-64
2022/10/04 03:56:45;;;;;;;4.03;3.63;;;21.10;56.80;;;;;;5038643;28;20443;-64
2022/10/04 03:59:16;;;;;;;4.20;3.80;;;21.10;56.70;;;;;;5037917;28;20036;-64
2022/10/04 04:01:53;;;;;;;3.85;3.40;;;21.10;56.80;;;;;;5038448;28;20033;-65
2022/10/04 04:04:32;;;;;;;3.92;3.53;;;21.10;56.80;;;;;;5046951;28;20481;-65
2022/10/04 04:07:13;;;;;;;3.83;3.42;;;21.10;56.80;;;;;;5032932;28;20025;-65
2022/10/04 04:09:43;;;;;;;3.95;3.55;;;21.10;56.80;;;;;;5033751;28;20032;-65
2022/10/04 04:12:22;;;;;;;4.00;3.42;;;21.10;56.80;;;;;;5038490;28;20108;-65
2022/10/04 04:14:52;;;;;;;4.00;3.60;;;21.10;56.90;;;;;;5037840;28;20060;-65
2022/10/04 04:17:40;;;;;;;4.05;3.65;;;21.10;56.90;;;;;;5036373;28;20054;-65
2022/10/04 04:20:24;;;;;;;3.95;3.45;;;21.00;56.80;;;;;;5053847;28;20041;-65
2022/10/04 04:23:29;;;;;;;3.67;3.35;;;21.00;56.80;;;;;;5035145;28;20053;-65
2022/10/04 04:26:10;;;;;;;4.35;3.70;;;21.00;56.80;;;;;;5027263;28;20480;-65
2022/10/04 04:29:14;;;;;;;3.78;3.20;;;21.10;56.90;;;;;;5035428;28;20021;-65
2022/10/04 04:31:42;;;;;;;4.00;3.30;;;21.00;56.90;;;;;;5027434;28;20044;-65
2022/10/04 04:34:28;;;;;;;3.55;3.20;;;21.00;56.90;;;;;;5036983;28;20037;-65
2022/10/04 04:37:01;;;;;;;4.03;3.40;;;21.00;56.90;;;;;;5038399;28;20056;-65
2022/10/04 04:39:38;;;;;;;3.50;3.10;;;21.00;56.90;;;;;;5041151;28;20423;-65
2022/10/04 04:42:18;;;;;;;3.65;3.22;;;21.00;56.90;;;;;;5036038;28;20021;-65
2022/10/04 04:44:56;;;;;;;3.85;3.50;;;21.00;56.90;;;;;;5036886;28;20389;-65
2022/10/04 04:47:29;;;;;;;3.88;3.47;;;21.10;57.00;;;;;;5037339;28;20017;-65
2022/10/04 04:49:57;;;;;;;3.20;2.90;;;21.00;56.90;;;;;;5037042;28;20500;-65
2022/10/04 04:52:27;;;;;;;3.95;3.55;;;21.00;56.90;;;;;;5036910;28;20384;-65
2022/10/04 04:54:54;;;;;;;4.20;3.60;;;21.00;56.90;;;;;;5037760;28;20078;-64
2022/10/04 04:57:20;;;;;;;3.80;3.40;;;21.00;56.90;;;;;;5037511;28;20029;-65
2022/10/04 04:59:51;;;;;;;3.70;3.30;;;21.00;56.90;;;;;;5030110;28;20126;-65
2022/10/04 05:02:50;;;;;;;3.90;3.30;;;21.00;56.90;;;;;;5030519;28;20355;-65
2022/10/04 05:05:17;;;;;;;3.85;3.30;;;21.00;56.90;;;;;;5031748;28;20499;-65
2022/10/04 05:07:43;;;;;;;3.65;3.10;;;21.00;56.90;;;;;;5038013;28;20032;-65
2022/10/04 05:10:58;;;;;;;3.60;3.30;;;21.00;56.90;;;;;;5037689;28;20113;-65
2022/10/04 05:13:31;;;;;;;3.78;3.38;;;21.00;56.90;;;;;;5029959;28;20378;-64
2022/10/04 05:15:59;;;;;;;3.78;3.28;;;21.00;56.90;;;;;;5036765;28;20037;-65
2022/10/04 05:18:32;;;;;;;3.40;3.00;;;21.00;56.90;;;;;;5038300;28;20071;-65
2022/10/04 05:21:36;;;;;;;3.70;3.28;;;21.00;56.90;;;;;;5037918;28;20037;-65
2022/10/04 05:24:17;;;;;;;3.50;3.13;;;21.00;56.90;;;;;;5034233;28;20037;-65
2022/10/04 05:26:43;;;;;;;3.58;3.03;;;21.00;56.90;;;;;;5039324;28;20033;-65
2022/10/04 05:29:15;;;;;;;3.75;3.28;;;21.00;56.90;;;;;;5039190;28;20028;-65
2022/10/04 05:31:58;;;;;;;3.53;3.00;;;20.90;56.90;;;;;;5040950;28;20040;-65
2022/10/04 05:34:27;;;;;;;3.03;2.60;;;20.90;56.90;;;;;;5038881;28;20025;-65
2022/10/04 05:37:25;;;;;;;3.35;2.65;;;20.90;56.90;;;;;;5039315;28;20028;-65
2022/10/04 05:39:57;;;;;;;3.20;2.55;;;21.00;57.00;;;;;;5052473;28;20069;-65
2022/10/04 05:42:32;;;;;;;3.65;2.65;;;20.90;57.00;;;;;;5041515;28;20083;-65
2022/10/04 05:45:00;;;;;;;3.10;2.60;;;20.90;57.00;;;;;;5040892;28;20104;-65
2022/10/04 05:47:30;;;;;;;3.22;2.40;;;20.90;57.00;;;;;;5040034;28;20028;-65
2022/10/04 05:49:57;;;;;;;3.28;2.38;;;20.90;57.00;;;;;;5038935;28;20548;-65
2022/10/04 05:52:32;;;;;;;3.42;2.80;;;20.90;57.00;;;;;;5041924;28;20125;-64
2022/10/04 05:55:25;;;;;;;3.17;2.38;;;20.90;57.00;;;;;;5041816;28;20025;-65
2022/10/04 05:58:00;;;;;;;3.40;2.58;;;21.00;57.00;;;;;;5040522;28;20104;-65
2022/10/04 06:01:02;;;;;;;3.38;2.60;;;20.90;56.90;;;;;;5036482;28;20112;-65
2022/10/04 06:03:46;;;;;;;3.35;2.55;;;20.90;57.00;;;;;;5034824;28;20108;-65
2022/10/04 06:06:22;;;;;;;2.92;2.47;;;20.90;56.90;;;;;;5037468;28;20105;-65
2022/10/04 06:09:26;;;;;;;3.03;2.40;;;20.90;56.90;;;;;;5057973;28;20028;-65
2022/10/04 06:12:07;;;;;;;3.15;2.60;;;20.90;57.00;;;;;;5040657;28;20481;-65
2022/10/04 06:14:51;;;;;;;4.10;2.67;;;20.90;57.00;;;;;;5039916;28;20242;-65
2022/10/04 06:17:22;;;;;;;3.13;2.53;;;20.90;57.00;;;;;;5038123;28;20544;-65
2022/10/04 06:20:22;;;;;;;3.25;2.65;;;20.90;57.00;;;;;;5036786;28;20022;-65
2022/10/04 06:22:56;;;;;;;2.92;2.50;;;20.90;57.00;;;;;;5039400;28;20037;-66
2022/10/04 06:25:32;;;;;;;3.20;2.55;;;21.00;57.10;;;;;;5041101;28;20021;-65
2022/10/04 06:28:19;;;;;;;3.20;2.50;;;20.90;57.00;;;;;;5041147;28;20025;-65
2022/10/04 06:31:25;;;;;;;3.25;2.60;;;20.90;57.00;;;;;;5039788;28;20054;-65
2022/10/04 06:34:19;;;;;;;3.00;2.35;;;20.90;57.00;;;;;;5030778;28;20056;-65
2022/10/04 06:37:23;;;;;;;2.75;2.20;;;20.90;57.10;;;;;;5042706;28;20107;-67
2022/10/04 06:39:52;;;;;;;3.03;2.50;;;21.00;57.60;;;;;;5036043;28;20032;-67
2022/10/04 06:42:35;;;;;;;3.00;2.42;;;21.00;57.80;;;;;;5040066;28;20031;-66
2022/10/04 06:45:35;;;;;;;4.28;2.40;;;20.90;58.00;;;;;;5037987;28;20025;-66
2022/10/04 06:48:09;;;;;;;2.80;2.03;;;21.00;58.30;;;;;;5041438;28;20484;-66
2022/10/04 06:50:54;;;;;;;2.90;2.20;;;21.00;58.20;;;;;;5039583;28;20031;-66
2022/10/04 06:54:03;;;;;;;3.70;2.25;;;21.10;58.10;;;;;;5039999;28;20025;-67
2022/10/04 06:56:49;;;;;;;4.22;2.70;;;21.00;58.10;;;;;;5011588;28;20038;-66
2022/10/04 06:59:52;;;;;;;3.20;2.35;;;21.10;58.70;;;;;;5038596;28;20052;-67
2022/10/04 07:02:24;;;;;;;4.15;2.50;;;21.10;59.60;;;;;;5039998;28;20048;-66
2022/10/04 07:04:56;;;;;;;4.70;3.20;;;21.20;58.70;;;;;;5039365;28;20021;-67
2022/10/04 07:07:34;;;;;;;6.10;2.60;;;21.20;59.00;;;;;;5043084;28;20469;-66
2022/10/04 07:10:18;;;;;;;4.55;2.55;;;21.20;59.20;;;;;;5055594;28;20878;-66
2022/10/04 07:13:10;;;;;;;6.43;3.08;;;21.30;58.80;;;;;;5036139;28;20488;-67
2022/10/04 07:15:49;;;;;;;4.80;2.70;;;21.30;59.40;;;;;;5018077;28;20041;-67
2022/10/04 07:18:22;;;;;;;5.35;2.45;;;21.30;58.70;;;;;;5040095;28;20046;-66
2022/10/04 07:20:58;;;;;;;4.70;2.70;;;21.40;58.80;;;;;;5035113;28;20420;-67
2022/10/04 07:23:29;;;;;;;5.10;2.38;;;21.40;58.70;;;;;;5033327;28;20079;-67
2022/10/04 07:26:00;;;;;;;3.78;2.42;;;21.40;58.60;;;;;;5039682;28;20029;-67
2022/10/04 07:31:31;;;;;;;3.60;2.80;;;21.50;58.20;;;;;;5032498;28;20122;-66
2022/10/04 07:34:08;;;;;;;4.55;2.50;;;21.50;57.80;;;;;;5026819;28;20470;-66
2022/10/04 07:36:40;;;;;;;4.55;3.00;;;21.60;57.70;;;;;;5037106;28;20029;-67
2022/10/04 07:39:28;;;;;;;4.40;2.85;;;21.60;57.60;;;;;;5042051;28;20025;-66
2022/10/04 07:42:13;;;;;;;5.32;3.00;;;21.60;57.40;;;;;;5040563;28;20032;-67
2022/10/04 07:44:47;;;;;;;3.63;2.92;;;21.60;57.20;;;;;;5039511;28;20355;-67
2022/10/04 07:47:28;;;;;;;4.88;2.80;;;21.60;57.10;;;;;;5056876;28;20040;-67
2022/10/04 07:49:54;;;;;;;5.03;2.72;;;21.60;56.90;;;;;;5040277;28;20021;-67
2022/10/04 07:52:49;;;;;;;4.53;3.00;;;21.60;56.90;;;;;;5038280;28;20025;-67
2022/10/04 07:55:21;;;;;;;3.60;2.60;;;21.70;56.90;;;;;;5036119;28;20041;-67
2022/10/04 07:58:24;;;;;;;5.38;2.80;;;21.70;56.80;;;;;;5034406;28;20493;-67
2022/10/04 08:01:06;;;;;;;4.43;2.97;;;21.70;56.70;;;;;;5033232;28;20136;-67
2022/10/04 08:04:00;;;;;;;3.63;2.60;;;21.70;56.60;;;;;;5040174;28;20079;-67
2022/10/04 08:06:34;;;;;;;4.63;2.78;;;21.70;56.90;;;;;;5035247;28;20065;-67
2022/10/04 08:09:04;;;;;;;4.07;3.00;;;21.70;56.70;;;;;;5033571;28;20025;-67
2022/10/04 08:12:17;;;;;;;4.80;2.92;;;21.70;56.70;;;;;;5035561;28;20029;-67
2022/10/04 08:14:55;;;;;;;3.58;2.60;;;21.70;56.60;;;;;;5032161;28;20121;-67
2022/10/04 08:17:41;;;;;;;3.72;2.53;;;21.70;56.60;;;;;;5036611;28;20161;-67
2022/10/04 08:20:41;;;;;;;4.10;2.75;;;21.80;56.60;;;;;;5054538;28;20428;-67
2022/10/04 08:23:31;;;;;;;4.35;2.80;;;21.80;56.50;;;;;;5051936;28;20036;-68
2022/10/04 08:26:20;;;;;;;3.63;2.58;;;21.80;56.50;;;;;;5040360;28;20045;-67
2022/10/04 08:32:23;;;;;;;3.50;2.60;;;21.80;56.60;;;;;;5021198;28;20168;-67
2022/10/04 08:35:18;;;;;;;4.45;2.80;;;21.80;56.40;;;;;;5034916;28;20421;-67
2022/10/04 08:38:15;;;;;;;4.53;2.47;;;21.80;56.40;;;;;;5036973;28;20025;-67
2022/10/04 08:40:55;;;;;;;4.13;2.70;;;21.90;56.30;;;;;;5037475;28;20390;-66
2022/10/04 08:43:42;;;;;;;3.47;2.50;;;21.90;56.30;;;;;;5036861;28;20025;-67
2022/10/04 08:46:22;;;;;;;2.92;2.30;;;21.90;56.30;;;;;;5034993;28;20051;-68
2022/10/04 08:49:00;;;;;;;3.38;2.40;;;21.90;56.30;;;;;;5033407;28;20500;-68
2022/10/04 08:51:43;;;;;;;4.80;2.33;;;21.90;56.40;;;;;;5029595;28;20026;-67
2022/10/04 08:54:36;;;;;;;3.88;2.75;;;21.90;56.40;;;;;;5035041;28;20087;-68
2022/10/04 08:57:11;;;;;;;3.78;2.63;;;21.90;56.30;;;;;;5038831;28;20030;-68
2022/10/04 09:00:04;;;;;;;3.83;2.42;;;21.90;56.30;;;;;;5029566;28;20017;-68
2022/10/04 09:03:07;;;;;;;3.50;2.50;;;21.90;56.20;;;;;;5024663;28;20036;-68
2022/10/04 09:05:52;;;;;;;3.60;2.50;;;21.90;56.10;;;;;;5036230;28;20078;-68
2022/10/04 09:08:42;;;;;;;3.67;2.67;;;21.90;56.10;;;;;;5039926;28;20025;-68
2022/10/04 09:11:24;;;;;;;3.53;2.40;;;21.90;56.10;;;;;;5038943;28;20017;-67
2022/10/04 09:14:08;;;;;;;3.33;2.50;;;21.90;56.00;;;;;;5038933;28;20111;-68
2022/10/04 09:17:06;;;;;;;3.90;2.65;;;21.90;56.00;;;;;;5037925;28;20045;-68
2022/10/04 09:19:52;;;;;;;3.03;2.30;;;21.90;56.00;;;;;;5035881;28;20037;-68
2022/10/04 09:22:28;;;;;;;3.17;2.30;;;21.90;56.00;;;;;;5038640;28;20036;-68
2022/10/04 09:25:28;;;;;;;3.35;2.53;;;21.90;56.00;;;;;;5034022;28;20033;-68
2022/10/04 09:28:12;;;;;;;3.55;2.40;;;21.90;56.00;;;;;;5029273;28;20029;-68
2022/10/04 09:30:42;;;;;;;3.55;2.38;;;21.90;56.00;;;;;;5031667;28;20025;-68
2022/10/04 09:33:34;;;;;;;3.22;2.50;;;21.90;56.00;;;;;;5036723;28;20053;-68
2022/10/04 09:36:24;;;;;;;4.47;2.40;;;21.90;56.10;;;;;;5034512;28;20052;-67
2022/10/04 09:39:12;;;;;;;4.25;2.33;;;21.90;56.10;;;;;;5030774;28;20138;-68
2022/10/04 09:41:57;;;;;;;4.43;2.30;;;21.80;56.00;;;;;;5038141;28;20055;-68
2022/10/04 09:44:33;;;;;;;4.10;2.22;;;21.90;56.10;;;;;;5034703;28;20025;-67
2022/10/04 09:47:03;;;;;;;3.60;2.30;;;21.90;56.10;;;;;;5036739;28;20100;-68
2022/10/04 09:49:49;;;;;;;;;;;21.80;56.10;;;;;;5054663;28;20040;-68
2022/10/04 09:52:20;;;;;;;3.58;2.22;;;21.80;56.10;;;;;;5036494;28;19910;-68
2022/10/04 09:54:48;;;;;;;4.10;2.47;;;21.80;56.10;;;;;;5034425;28;20030;-68
2022/10/04 09:57:59;;;;;;;3.65;2.25;;;21.80;56.10;;;;;;5039162;28;20108;-67
2022/10/04 10:00:30;;;;;;;3.63;2.08;;;21.80;56.10;;;;;;5039231;28;20022;-68
2022/10/04 10:03:12;;;;;;;3.42;2.35;;;21.80;56.00;;;;;;5038047;28;20361;-67
2022/10/04 10:06:19;;;;;;;3.38;2.65;;;21.80;56.00;;;;;;5035278;28;20135;-68
2022/10/04 10:09:12;;;;;;;3.47;2.15;;;21.80;56.10;;;;;;5036229;28;20029;-68
2022/10/04 10:15:12;;;;;;;2.63;1.77;;;21.70;56.10;;;;;;5033649;28;20056;-68
2022/10/04 10:17:45;;;;;;;2.33;1.70;;;21.80;56.30;;;;;;5038452;28;20513;-68
2022/10/04 10:20:48;;;;;;;2.70;1.70;;;21.70;56.30;;;;;;5035562;28;20028;-67
2022/10/04 10:23:49;;;;;;;2.50;1.70;;;21.70;56.30;;;;;;5034863;28;20051;-67
2022/10/04 10:26:32;;;;;;;2.45;1.75;;;21.70;56.40;;;;;;5042426;28;20377;-68
2022/10/04 10:29:19;;;;;;;2.28;1.70;;;21.70;56.40;;;;;;5056905;28;20489;-68
2022/10/04 10:32:09;;;;;;;2.42;1.63;;;21.70;56.50;;;;;;5038383;28;20041;-68
2022/10/04 10:34:54;;;;;;;2.53;1.70;;;21.70;56.50;;;;;;5040255;28;20113;-69
2022/10/04 10:37:38;;;;;;;2.63;1.63;;;21.60;56.40;;;;;;5040018;28;20041;-68
2022/10/04 10:40:31;;;;;;;1.80;1.40;;;21.70;56.50;;;;;;5036417;28;20393;-69
2022/10/04 10:43:14;;;;;;;2.25;1.52;;;21.60;56.40;;;;;;5038776;28;20028;-68
2022/10/04 10:46:00;;;;;;;2.28;1.60;;;21.70;56.50;;;;;;5041513;28;20026;-68
2022/10/04 10:48:25;;;;;;;2.55;1.83;;;21.70;56.50;;;;;;5042041;28;20076;-68
2022/10/04 10:51:09;;;;;;;2.78;1.77;;;21.70;56.50;;;;;;5040963;28;20461;-68
2022/10/04 10:53:45;;;;;;;2.53;1.60;;;21.70;56.50;;;;;;5038527;28;20501;-68
2022/10/04 10:56:44;;;;;;;3.00;1.70;;;21.70;56.50;;;;;;5036748;28;20021;-67
2022/10/04 10:59:49;;;;;;;2.45;1.60;;;21.70;56.50;;;;;;5037475;28;20389;-67
2022/10/04 11:02:23;;;;;;;2.35;1.70;;;21.70;56.50;;;;;;5038009;28;20030;-67
2022/10/04 11:05:13;;;;;;;2.10;1.70;;;21.70;56.50;;;;;;5036770;28;20025;-68
2022/10/04 11:08:00;;;;;;;2.78;1.77;;;21.70;56.60;;;;;;5038727;28;20477;-67
2022/10/04 11:10:41;;;;;;;2.70;1.70;;;21.70;56.60;;;;;;5037581;28;20036;-67
2022/10/04 11:13:16;;;;;;;2.60;1.75;;;21.70;56.60;;;;;;5035604;28;20103;-67
2022/10/04 11:15:51;;;;;;;2.60;1.60;;;21.70;56.50;;;;;;5039679;28;20032;-67
2022/10/04 11:18:36;;;;;;;2.17;1.50;;;21.70;56.50;;;;;;5038472;28;20927;-68
2022/10/04 11:21:20;;;;;;;3.08;1.90;;;21.70;56.60;;;;;;5035404;28;20063;-67
2022/10/04 11:24:42;;;;;;;2.35;1.77;;;21.70;56.60;;;;;;5030193;28;20043;-68
2022/10/04 11:27:43;;;;;;;2.65;1.50;;;21.80;56.60;;;;;;5003724;28;20514;-67
2022/10/04 11:30:29;;;;;;;2.17;1.40;;;21.80;56.70;;;;;;5040008;28;20030;-67
2022/10/04 11:33:25;;;;;;;2.60;1.65;;;21.80;56.70;;;;;;5036224;28;20411;-67
2022/10/04 11:36:09;;;;;;;2.47;1.65;;;21.80;56.70;;;;;;5037625;28;20025;-68
2022/10/04 11:39:05;;;;;;;2.60;1.60;;;21.80;56.80;;;;;;5036009;28;20021;-67
2022/10/04 11:41:44;;;;;;;2.30;1.50;;;21.80;56.80;;;;;;5038201;28;20111;-67
2022/10/04 11:44:47;;;;;;;2.63;1.50;;;21.80;56.80;;;;;;5038487;28;20044;-67
2022/10/04 11:48:08;;;;;;;2.80;1.80;;;21.80;56.80;;;;;;5036729;28;20488;-67
2022/10/04 11:51:09;;;;;;;2.13;1.58;;;21.80;56.90;;;;;;5018846;28;20494;-67
2022/10/04 11:53:51;;;;;;;2.15;1.40;;;21.80;56.90;;;;;;5039742;28;20544;-67
2022/10/04 11:57:30;;;;;;;2.45;1.45;;;21.80;56.90;;;;;;5035575;28;20488;-68
2022/10/04 12:00:19;;;;;;;2.97;1.70;;;21.90;57.00;;;;;;4942909;29;20054;-68
2022/10/04 12:02:45;;;;;;;2.37;1.67;;;21.90;57.00;;;;;;4996469;28;20038;-67
2022/10/04 12:05:31;;;;;;;3.33;1.77;;;21.90;57.00;;;;;;5036035;28;20069;-67
2022/10/04 12:08:09;;;;;;;2.53;1.60;;;21.90;57.00;;;;;;5037467;28;20049;-68
2022/10/04 12:10:38;;;;;;;2.00;1.58;;;21.90;57.00;;;;;;5033954;28;20054;-68
2022/10/04 12:13:13;;;;;;;2.60;1.77;;;21.90;57.00;;;;;;5038755;28;20588;-69
2022/10/04 12:16:07;;;;;;;2.50;1.75;;;21.90;57.00;;;;;;5038556;28;20022;-67
2022/10/04 12:18:59;;;;;;;2.88;1.50;;;21.90;57.00;;;;;;5041176;28;20500;-68
2022/10/04 12:22:14;;;;;;;2.72;1.67;;;21.90;57.00;;;;;;5046291;28;20112;-67
2022/10/04 12:25:11;;;;;;;2.20;1.63;;;21.90;57.00;;;;;;5009237;28;20049;-68
2022/10/04 12:27:59;;;;;;;2.13;1.48;;;21.90;57.00;;;;;;5009536;28;20029;-67
2022/10/04 12:30:46;;;;;;;2.22;1.52;;;21.90;57.10;;;;;;5032311;28;20457;-67
2022/10/04 12:33:22;;;;;;;3.03;1.52;;;21.90;57.10;;;;;;5035472;28;20029;-67
2022/10/04 12:35:56;;;;;;;3.15;1.65;;;21.90;57.00;;;;;;5036271;28;20075;-67
2022/10/04 12:38:52;;;;;;;2.63;1.60;;;21.90;57.00;;;;;;5033424;28;20083;-68
2022/10/04 12:41:38;;;;;;;3.55;1.60;;;21.90;57.00;;;;;;5036037;28;20025;-67
2022/10/04 12:44:18;;;;;;;3.53;1.70;;;21.90;57.10;;;;;;5039572;28;20030;-67
2022/10/04 12:47:10;;;;;;;2.35;1.73;;;21.90;57.00;;;;;;5035320;28;20025;-68
2022/10/04 12:49:47;;;;;;;2.55;1.60;;;21.90;57.00;;;;;;5023516;28;20110;-68
2022/10/04 12:52:23;;;;;;;2.88;1.65;;;21.90;57.00;;;;;;5029988;28;20033;-67
2022/10/04 12:55:19;;;;;;;3.50;1.80;;;21.90;57.00;;;;;;5027230;28;20112;-67
2022/10/04 12:58:02;;;;;;;2.72;1.60;;;21.90;57.00;;;;;;5034112;28;20099;-68
2022/10/04 13:00:34;;;;;;;3.13;1.60;;;21.90;57.00;;;;;;5036543;28;20468;-68
2022/10/04 13:03:23;;;;;;;2.55;1.55;;;21.90;57.10;;;;;;5038448;28;20037;-67
2022/10/04 13:06:03;;;;;;;2.78;1.42;;;21.90;57.00;;;;;;5038808;28;20465;-68
2022/10/04 13:09:01;;;;;;;3.00;1.55;;;21.90;57.10;;;;;;5037109;28;20028;-68
2022/10/04 13:11:50;;;;;;;2.65;1.75;;;21.90;57.10;;;;;;5034816;28;20034;-68
2022/10/04 13:14:27;;;;;;;2.00;1.48;;;21.80;57.00;;;;;;5037721;28;20103;-67
2022/10/04 13:17:02;;;;;;;2.88;1.58;;;21.90;57.00;;;;;;5036273;28;20115;-68
2022/10/04 13:19:38;;;;;;;2.10;1.40;;;21.80;57.00;;;;;;5030397;28;20079;-67
2022/10/04 13:22:35;;;;;;;2.38;1.40;;;21.90;57.10;;;;;;5036686;28;20403;-68
2022/10/04 13:25:32;;;;;;;3.22;1.60;;;21.90;57.00;;;;;;5041449;28;20017;-67
2022/10/04 13:28:13;;;;;;;2.05;1.50;;;21.80;57.00;;;;;;5037332;28;20017;-68
2022/10/04 13:30:59;;;;;;;2.40;1.60;;;21.80;57.00;;;;;;5040104;28;20037;-67
2022/10/04 13:33:28;;;;;;;2.10;1.50;;;21.80;57.10;;;;;;5036407;28;20021;-67
2022/10/04 13:36:05;;;;;;;3.83;1.50;;;21.80;57.10;;;;;;5034127;28;20060;-68
2022/10/04 13:38:49;;;;;;;2.42;1.73;;;21.80;57.10;;;;;;5033744;28;20265;-67
2022/10/04 13:41:32;;;;;;;2.75;1.45;;;21.80;57.10;;;;;;5033599;28;20029;-67
2022/10/04 13:44:41;;;;;;;3.53;1.52;;;21.80;57.00;;;;;;5038061;28;20032;-67
2022/10/04 13:47:16;;;;;;;;;;;21.80;57.10;;;;;;5039407;28;20025;-67
2022/10/04 13:50:35;;;;;;;2.20;1.40;;;21.80;57.10;;;;;;5039021;28;19917;-66
2022/10/04 13:56:36;;;;;;;2.40;1.35;;;21.80;57.00;;;;;;5033719;28;20550;-67
2022/10/04 13:59:04;;;;;;;1.80;1.10;;;21.80;57.00;;;;;;5039377;28;20547;-68
2022/10/04 14:01:58;;;;;;;1.98;1.30;;;21.80;57.00;;;;;;5037770;28;20443;-67
2022/10/04 14:04:56;;;;;;;2.00;1.45;;;21.90;57.10;;;;;;5034420;28;20050;-67
2022/10/04 14:07:29;;;;;;;2.00;1.20;;;21.80;57.00;;;;;;5037364;28;20022;-68
2022/10/04 14:10:03;;;;;;;1.83;1.48;;;21.80;57.00;;;;;;5038201;28;20025;-67
2022/10/04 14:12:50;;;;;;;2.22;1.50;;;21.80;57.00;;;;;;5036612;28;20040;-68
2022/10/04 14:15:49;;;;;;;2.10;1.38;;;21.80;57.00;;;;;;5040136;28;20033;-67
2022/10/04 14:18:52;;;;;;;2.50;1.55;;;21.80;57.00;;;;;;5040760;28;20048;-67